Time;durP1;ratioP1;P1;durP2;ratioP2;P2;SDS_P1;SDS_P2;PMS_P1;PMS_P2;Temp;Humidity;BMP_temperature;BMP_pressure;BME280_temperature;BME280_humidity;BME280_pressure;Samples;Min_cycle;Max_cycle;Signal;HPM_P1;HPM_P2
2022/05/02 00:02:21;;;;;;;4.67;2.20;;;;;;;8.74;66.99;101499.72;5986022;28;20094;-68
2022/05/02 00:05:17;;;;;;;7.57;2.23;;;;;;;8.71;67.28;101492.88;5980264;28;20050;-67
2022/05/02 00:08:13;;;;;;;3.97;2.53;;;;;;;8.69;67.62;101496.59;5983171;28;20047;-68
2022/05/02 00:11:08;;;;;;;4.20;2.50;;;;;;;8.60;67.53;101494.63;5975693;28;20027;-66
2022/05/02 00:14:03;;;;;;;5.73;2.40;;;;;;;8.56;67.75;101495.81;5983378;28;20421;-68
2022/05/02 00:16:59;;;;;;;8.80;3.27;;;;;;;8.51;67.89;101487.34;5984689;28;20030;-66
2022/05/02 00:19:54;;;;;;;7.77;3.27;;;;;;;8.42;69.07;101493.34;5984984;28;20042;-66
2022/05/02 00:22:49;;;;;;;5.30;2.47;;;;;;;8.20;69.76;101478.19;5978763;28;20046;-67
2022/05/02 00:25:45;;;;;;;5.07;2.70;;;;;;;8.31;69.19;101488.84;5980280;28;20097;-67
2022/05/02 00:28:40;;;;;;;6.07;2.27;;;;;;;8.26;70.17;101486.50;5980602;28;20271;-68
2022/05/02 00:31:35;;;;;;;5.17;2.30;;;;;;;8.47;69.57;101476.19;5987707;28;20035;-67
2022/05/02 00:34:30;;;;;;;6.93;2.83;;;;;;;8.59;69.39;101479.72;5979107;28;20066;-67
2022/05/02 00:37:26;;;;;;;4.10;2.17;;;;;;;8.76;68.90;101481.94;5978820;28;20046;-66
2022/05/02 00:40:21;;;;;;;6.17;2.37;;;;;;;8.78;68.65;101474.72;5979519;28;20487;-68
2022/05/02 00:43:17;;;;;;;4.80;2.30;;;;;;;9.01;68.73;101486.22;5980710;28;20339;-68
2022/05/02 00:46:24;;;;;;;4.70;2.40;;;;;;;8.97;67.88;101483.78;5991082;28;20035;-68
2022/05/02 00:49:19;;;;;;;5.50;2.78;;;;;;;9.02;67.62;101483.47;5983428;28;20703;-67
2022/05/02 00:52:15;;;;;;;5.65;2.63;;;;;;;8.92;68.35;101477.16;5988397;28;20028;-68
2022/05/02 00:55:10;;;;;;;5.40;2.08;;;;;;;8.98;68.35;101472.28;5984413;28;20034;-68
2022/05/02 00:58:07;;;;;;;6.93;2.70;;;;;;;9.12;67.57;101468.56;5990548;28;20043;-66
2022/05/02 01:01:04;;;;;;;3.78;2.28;;;;;;;9.41;67.91;101475.06;5983864;28;20043;-67
2022/05/02 01:03:59;;;;;;;8.00;2.85;;;;;;;9.31;67.16;101474.13;5984103;28;20075;-68
2022/05/02 01:07:10;;;;;;;4.40;2.50;;;;;;;9.45;67.68;101467.75;5985029;28;20038;-66
2022/05/02 01:10:05;;;;;;;4.72;2.65;;;;;;;9.38;67.71;101459.44;5976599;28;20098;-68
2022/05/02 01:13:01;;;;;;;5.88;2.90;;;;;;;9.37;67.64;101462.22;5984127;28;20035;-68
2022/05/02 01:15:56;;;;;;;6.07;2.30;;;;;;;9.44;67.22;101469.53;5984202;28;20434;-66
2022/05/02 01:18:56;;;;;;;4.07;2.20;;;;;;;9.41;67.12;101485.66;5982822;28;20066;-66
2022/05/02 01:21:51;;;;;;;6.40;2.58;;;;;;;9.54;67.22;101475.78;5982378;28;20069;-68
2022/05/02 01:24:47;;;;;;;6.80;2.67;;;;;;;8.86;68.37;101477.63;5983523;28;20391;-67
2022/05/02 01:27:43;;;;;;;5.95;2.85;;;;;;;8.80;69.23;101488.69;5990577;28;20287;-67
2022/05/02 01:30:38;;;;;;;7.20;2.60;;;;;;;8.81;70.44;101472.69;5993320;28;20062;-68
2022/05/02 01:33:35;;;;;;;6.13;2.63;;;;;;;8.78;70.48;101478.22;5983911;28;20038;-66
2022/05/02 01:36:30;;;;;;;5.88;2.72;;;;;;;8.76;70.24;101466.06;5990384;28;20467;-67
2022/05/02 01:39:25;;;;;;;8.30;2.77;;;;;;;8.71;71.12;101471.72;5987963;28;20047;-67
2022/05/02 01:42:21;;;;;;;7.13;2.50;;;;;;;8.61;71.13;101461.94;5983632;28;20094;-67
2022/05/02 01:45:16;;;;;;;4.03;2.70;;;;;;;8.47;71.42;101454.19;5982369;28;20043;-67
2022/05/02 01:48:11;;;;;;;8.50;2.93;;;;;;;8.44;71.29;101455.28;5970694;28;20291;-67
2022/05/02 01:51:06;;;;;;;5.93;2.93;;;;;;;8.59;70.96;101458.59;5982722;28;20035;-66
2022/05/02 01:54:02;;;;;;;4.53;2.47;;;;;;;8.62;71.79;101461.81;5986841;28;20046;-67
2022/05/02 01:56:57;;;;;;;4.97;2.30;;;;;;;8.74;71.26;101460.91;5985613;28;20286;-68
2022/05/02 01:59:52;;;;;;;5.70;2.50;;;;;;;8.75;71.04;101453.81;5983698;28;20283;-67
2022/05/02 02:02:48;;;;;;;6.07;3.07;;;;;;;8.41;70.92;101444.06;5982581;28;20063;-66
2022/05/02 02:05:49;;;;;;;5.87;2.90;;;;;;;8.20;72.56;101447.34;5982193;28;20723;-67
2022/05/02 02:08:45;;;;;;;5.00;3.13;;;;;;;8.27;72.57;101439.81;5992118;28;20067;-67
2022/05/02 02:11:40;;;;;;;6.22;2.53;;;;;;;8.17;73.24;101447.56;5981235;28;20122;-68
2022/05/02 02:14:35;;;;;;;5.68;2.65;;;;;;;8.29;73.41;101454.59;5986181;28;20383;-67
2022/05/02 02:17:31;;;;;;;5.80;2.53;;;;;;;7.80;73.38;101449.38;5982998;28;20031;-66
2022/05/02 02:20:26;;;;;;;7.87;2.70;;;;;;;7.52;74.86;101456.75;5989153;28;20039;-66
2022/05/02 02:23:22;;;;;;;7.22;2.70;;;;;;;7.20;76.23;101453.72;5985753;28;20316;-67
2022/05/02 02:26:17;;;;;;;6.13;2.35;;;;;;;7.04;77.94;101459.19;5983445;28;20039;-68
2022/05/02 02:29:13;;;;;;;6.40;2.55;;;;;;;7.43;78.74;101445.03;5980334;28;20169;-66
2022/05/02 02:32:08;;;;;;;5.78;2.88;;;;;;;7.06;77.74;101452.03;5982045;28;20035;-67
2022/05/02 02:35:04;;;;;;;6.00;2.93;;;;;;;6.83;79.57;101449.25;5982457;28;20439;-66
2022/05/02 02:37:59;;;;;;;9.75;3.40;;;;;;;7.08;77.90;101439.56;5983226;28;20271;-67
2022/05/02 02:40:54;;;;;;;10.00;3.17;;;;;;;6.59;79.42;101443.84;5980739;28;20043;-68
2022/05/02 02:43:50;;;;;;;5.10;2.93;;;;;;;6.37;80.49;101448.84;5982892;28;20118;-68
2022/05/02 02:46:45;;;;;;;9.33;3.30;;;;;;;6.16;81.15;101445.00;5981393;28;20086;-67
2022/05/02 02:49:41;;;;;;;5.40;3.08;;;;;;;5.95;81.86;101439.34;5984545;28;20283;-66
2022/05/02 02:52:36;;;;;;;5.13;3.03;;;;;;;5.85;82.22;101444.34;5978944;28;20031;-66
2022/05/02 02:55:32;;;;;;;6.63;3.10;;;;;;;5.77;82.40;101435.22;5985870;28;20115;-66
2022/05/02 02:58:27;;;;;;;10.82;3.30;;;;;;;6.25;83.02;101431.25;5981587;28;20047;-66
2022/05/02 03:01:22;;;;;;;5.43;3.20;;;;;;;6.33;82.57;101436.84;5980116;28;20051;-67
2022/05/02 03:07:32;;;;;;;5.68;3.38;;;;;;;5.84;82.73;101426.00;5980066;28;20039;-66
2022/05/02 03:10:27;;;;;;;8.30;3.33;;;;;;;5.76;83.25;101438.81;5979917;28;20039;-68
2022/05/02 03:13:23;;;;;;;8.32;3.60;;;;;;;5.55;84.29;101422.56;5981300;28;20278;-67
2022/05/02 03:16:18;;;;;;;4.80;2.65;;;;;;;5.47;85.02;101426.63;5981644;28;20043;-67
2022/05/02 03:19:13;;;;;;;5.13;3.30;;;;;;;5.43;84.58;101436.50;5991076;28;20051;-66
2022/05/02 03:22:09;;;;;;;7.30;3.23;;;;;;;5.58;84.78;101430.28;5979054;28;20031;-67
2022/05/02 03:25:05;;;;;;;6.47;3.50;;;;;;;5.45;84.76;101429.34;5980117;28;20031;-68
2022/05/02 03:28:00;;;;;;;5.93;3.20;;;;;;;5.74;85.47;101436.25;5979849;28;20035;-67
2022/05/02 03:30:56;;;;;;;8.40;2.87;;;;;;;5.54;84.74;101434.06;5979545;28;20391;-67
2022/05/02 03:33:51;;;;;;;7.20;3.53;;;;;;;5.69;84.76;101430.44;5979851;28;20274;-67
2022/05/02 03:36:46;;;;;;;6.13;3.28;;;;;;;5.61;84.77;101426.59;5992001;28;20783;-67
2022/05/02 03:39:42;;;;;;;6.40;3.20;;;;;;;5.85;84.44;101438.22;5982284;28;20047;-68
2022/05/02 03:42:40;;;;;;;5.80;2.97;;;;;;;5.70;84.53;101434.78;5979357;28;20415;-66
2022/05/02 03:45:36;;;;;;;7.45;3.40;;;;;;;5.72;85.65;101432.88;5980322;28;20042;-66
2022/05/02 03:48:31;;;;;;;9.63;3.80;;;;;;;5.87;84.26;101433.72;5985403;28;20042;-67
2022/05/02 03:51:27;;;;;;;5.00;3.03;;;;;;;5.90;84.53;101437.00;5974716;28;20039;-66
2022/05/02 03:54:23;;;;;;;6.05;3.03;;;;;;;6.51;84.05;101432.97;5986906;28;20505;-67
2022/05/02 03:57:19;;;;;;;5.53;2.92;;;;;;;6.58;81.85;101434.25;5980512;28;20039;-69
2022/05/02 04:00:15;;;;;;;8.13;3.20;;;;;;;6.64;81.53;101423.31;5980039;28;20090;-67
2022/05/02 04:03:10;;;;;;;5.93;3.17;;;;;;;6.52;80.91;101435.50;5980382;28;20024;-67
2022/05/02 04:06:05;;;;;;;7.23;3.50;;;;;;;6.44;81.98;101424.63;5981648;28;20094;-66
2022/05/02 04:09:01;;;;;;;5.07;2.77;;;;;;;6.39;82.04;101428.50;5979719;28;20278;-67
2022/05/02 04:11:56;;;;;;;6.57;2.80;;;;;;;6.37;81.94;101430.41;5980459;28;20039;-66
2022/05/02 04:14:52;;;;;;;5.00;3.40;;;;;;;6.34;83.32;101434.09;5980972;28;20124;-68
2022/05/02 04:17:47;;;;;;;6.50;3.43;;;;;;;6.37;82.90;101427.78;5978973;28;20066;-67
2022/05/02 04:20:43;;;;;;;6.80;2.97;;;;;;;6.85;82.34;101424.47;5978631;28;20511;-66
2022/05/02 04:23:38;;;;;;;9.35;3.28;;;;;;;7.22;80.34;101421.94;5978963;28;20291;-67
2022/05/02 04:26:34;;;;;;;5.40;3.00;;;;;;;7.62;77.96;101418.19;5979243;28;20047;-67
2022/05/02 04:29:30;;;;;;;6.38;3.15;;;;;;;7.75;76.53;101419.81;5979410;28;20023;-66
2022/05/02 04:32:25;;;;;;;4.60;2.90;;;;;;;7.78;76.00;101424.03;5983641;28;20043;-66
2022/05/02 04:35:20;;;;;;;6.38;3.60;;;;;;;7.81;75.65;101413.25;5979409;28;20035;-68
2022/05/02 04:38:16;;;;;;;5.47;2.80;;;;;;;7.87;75.56;101407.53;5978967;28;20046;-66
2022/05/02 04:41:14;;;;;;;5.53;3.10;;;;;;;7.82;74.66;101414.09;5979588;28;20076;-68
2022/05/02 04:44:09;;;;;;;4.88;2.75;;;;;;;7.63;75.37;101419.88;5980835;28;20495;-68
2022/05/02 04:47:05;;;;;;;6.10;3.00;;;;;;;7.53;76.43;101418.81;5980835;28;20035;-68
2022/05/02 04:50:00;;;;;;;5.93;2.63;;;;;;;7.78;76.19;101416.97;5978820;28;21043;-66
2022/05/02 04:52:56;;;;;;;5.87;3.10;;;;;;;7.70;76.17;101415.81;5978199;28;20407;-68
2022/05/02 04:55:51;;;;;;;5.60;2.88;;;;;;;7.69;75.89;101411.53;5979273;28;20039;-68
2022/05/02 04:58:47;;;;;;;8.77;3.10;;;;;;;7.63;75.51;101409.31;5979071;28;20550;-67
2022/05/02 05:01:42;;;;;;;7.60;3.13;;;;;;;7.72;75.52;101398.06;5977611;28;20035;-66
2022/05/02 05:04:37;;;;;;;6.93;3.53;;;;;;;7.72;76.04;101396.28;5977533;29;20039;-67
2022/05/02 05:07:32;;;;;;;5.47;3.37;;;;;;;7.89;75.30;101387.13;5978824;28;20479;-66
2022/05/02 05:10:28;;;;;;;6.77;4.00;;;;;;;7.84;75.74;101384.00;5978367;28;20046;-67
2022/05/02 05:13:26;;;;;;;7.18;3.78;;;;;;;8.03;75.03;101386.97;5978947;28;20059;-66
2022/05/02 05:16:33;;;;;;;6.45;3.83;;;;;;;8.17;75.22;101396.53;5978558;28;20123;-66
2022/05/02 05:19:53;;;;;;;7.28;3.20;;;;;;;8.53;73.24;101400.88;5993678;28;20463;-67
2022/05/02 05:23:03;;;;;;;6.18;3.38;;;;;;;9.03;73.57;101405.78;5978341;28;20427;-68
2022/05/02 05:26:10;;;;;;;6.30;3.42;;;;;;;9.54;71.32;101404.31;5974672;28;20523;-67
2022/05/02 05:29:25;;;;;;;6.75;3.20;;;;;;;10.05;68.95;101406.38;5975996;28;20046;-65
2022/05/02 05:32:28;;;;;;;5.63;3.15;;;;;;;10.29;68.95;101408.84;5981851;28;20507;-66
2022/05/02 05:35:32;;;;;;;9.35;3.10;;;;;;;10.25;68.62;101408.25;5981768;28;20027;-67
2022/05/02 05:38:46;;;;;;;8.65;3.92;;;;;;;10.18;68.79;101411.53;5981660;29;20067;-67
2022/05/02 05:42:04;;;;;;;6.47;2.83;;;;;;;10.78;66.35;101406.41;5990693;28;20037;-68
2022/05/02 05:45:09;;;;;;;6.53;2.85;;;;;;;10.66;67.50;101402.97;5979471;28;20081;-67
2022/05/02 05:48:17;;;;;;;4.65;2.92;;;;;;;11.14;66.72;101405.09;5982770;28;20117;-66
2022/05/02 05:51:37;;;;;;;6.20;3.78;;;;;;;12.10;64.14;101405.34;5981561;28;20106;-68
2022/05/02 05:54:55;;;;;;;4.93;2.83;;;;;;;12.95;61.66;101406.25;5982637;28;20023;-67
2022/05/02 05:57:59;;;;;;;6.72;2.90;;;;;;;14.01;56.69;101409.28;5973413;29;20475;-68
2022/05/02 06:01:11;;;;;;;6.35;3.20;;;;;;;14.20;55.00;101402.00;5996570;28;20507;-67
2022/05/02 06:04:07;;;;;;;9.35;3.20;;;;;;;14.47;55.31;101398.41;5981947;28;20039;-67
2022/05/02 06:07:03;;;;;;;7.85;3.40;;;;;;;13.83;55.34;101403.94;5992083;28;20483;-68
2022/05/02 06:10:00;;;;;;;8.48;3.33;;;;;;;14.16;54.06;101400.59;5975969;28;20030;-66
2022/05/02 06:12:57;;;;;;;6.15;3.60;;;;;;;14.36;53.66;101392.47;5982145;28;20055;-68
2022/05/02 06:19:10;;;;;;;8.52;4.03;;;;;;;13.25;58.36;101407.88;5970932;28;20501;-68
2022/05/02 06:22:07;;;;;;;7.18;3.53;;;;;;;13.68;57.97;101405.44;5980551;28;20035;-68
2022/05/02 06:25:04;;;;;;;6.47;3.10;;;;;;;13.95;57.21;101408.06;5985550;28;20039;-67
2022/05/02 06:28:02;;;;;;;6.32;3.65;;;;;;;14.12;57.03;101399.25;5979414;28;20041;-67
2022/05/02 06:31:00;;;;;;;6.38;3.50;;;;;;;13.29;58.75;101411.94;5979834;28;20042;-67
2022/05/02 06:33:56;;;;;;;6.13;3.20;;;;;;;13.99;57.03;101408.63;5981648;28;20069;-67
2022/05/02 06:37:13;;;;;;;11.25;4.32;;;;;;;13.03;60.07;101403.72;5981313;28;20063;-67
2022/05/02 06:40:33;;;;;;;10.25;4.00;;;;;;;13.13;60.17;101409.88;5979078;28;20031;-68
2022/05/02 06:43:33;;;;;;;6.47;3.70;;;;;;;13.15;60.08;101407.09;5994682;28;20027;-68
2022/05/02 06:46:33;;;;;;;7.93;3.38;;;;;;;13.33;59.20;101413.31;5983334;28;20046;-68
2022/05/02 06:49:32;;;;;;;6.03;3.67;;;;;;;12.80;60.37;101413.84;5979622;29;20057;-67
2022/05/02 06:52:33;;;;;;;8.68;3.70;;;;;;;12.77;61.06;101416.84;5980798;28;20399;-68
2022/05/02 06:55:51;;;;;;;7.13;3.47;;;;;;;13.07;60.16;101421.94;5980855;28;20031;-68
2022/05/02 06:59:23;;;;;;;7.65;3.63;;;;;;;13.80;58.16;101420.25;5981207;28;20472;-67
2022/05/02 07:02:35;;;;;;;4.82;2.78;;;;;;;14.06;57.47;101421.19;5979809;28;20134;-67
2022/05/02 07:05:45;;;;;;;7.03;3.20;;;;;;;13.99;57.76;101424.63;5986775;28;20041;-67
2022/05/02 07:08:52;;;;;;;6.18;2.80;;;;;;;14.15;57.86;101420.28;5983766;28;20100;-68
2022/05/02 07:12:05;;;;;;;5.88;3.22;;;;;;;13.70;57.94;101411.44;5978699;29;20618;-68
2022/05/02 07:15:12;;;;;;;12.68;3.95;;;;;;;13.50;57.96;101418.72;5980314;28;20027;-67
2022/05/02 07:18:17;;;;;;;6.13;3.22;;;;;;;13.45;58.96;101414.81;5979334;29;20047;-67
2022/05/02 07:21:37;;;;;;;8.98;3.75;;;;;;;13.54;59.42;101419.25;5994801;28;20046;-68
2022/05/02 07:24:54;;;;;;;6.85;3.40;;;;;;;13.83;57.41;101419.09;5980084;28;20035;-67
2022/05/02 07:28:10;;;;;;;9.32;3.58;;;;;;;13.85;58.32;101422.44;5980545;28;20039;-67
2022/05/02 07:31:07;;;;;;;6.13;3.08;;;;;;;14.13;57.57;101416.91;5973694;28;20031;-67
2022/05/02 07:34:03;;;;;;;7.25;3.40;;;;;;;14.56;57.05;101415.34;5990310;28;20038;-67
2022/05/02 07:36:59;;;;;;;5.72;2.78;;;;;;;14.86;56.05;101422.94;5980272;28;20077;-67
2022/05/02 07:39:55;;;;;;;6.10;3.22;;;;;;;14.77;55.36;101421.19;5978476;28;20542;-68
2022/05/02 07:42:53;;;;;;;6.28;3.33;;;;;;;15.42;53.71;101412.56;5978313;29;20569;-67
2022/05/02 07:45:49;;;;;;;5.53;2.90;;;;;;;15.80;50.38;101413.91;5979779;28;20503;-67
2022/05/02 07:48:44;;;;;;;6.05;2.85;;;;;;;15.32;52.18;101417.19;5989123;28;20035;-68
2022/05/02 07:51:46;;;;;;;6.25;3.08;;;;;;;15.29;53.25;101411.31;5978904;28;20047;-67
2022/05/02 07:54:42;;;;;;;7.60;3.22;;;;;;;15.07;52.76;101420.72;5979590;28;20070;-68
2022/05/02 07:57:39;;;;;;;7.88;2.95;;;;;;;14.76;53.51;101419.50;5971607;28;20499;-68
2022/05/02 08:00:34;;;;;;;8.63;3.00;;;;;;;14.64;55.11;101418.06;5973930;28;20035;-67
2022/05/02 08:03:29;;;;;;;5.43;2.83;;;;;;;14.62;54.43;101414.72;5985651;28;20039;-66
2022/05/02 08:06:49;;;;;;;5.97;2.80;;;;;;;14.90;53.51;101417.09;5979441;28;20035;-67
2022/05/02 08:10:12;;;;;;;7.75;3.05;;;;;;;15.22;52.66;101415.66;5979121;28;20275;-67
2022/05/02 08:13:26;;;;;;;6.65;3.08;;;;;;;14.93;53.57;101410.59;5979520;28;20442;-68
2022/05/02 08:16:23;;;;;;;5.60;2.92;;;;;;;14.80;53.94;101408.38;5983584;28;20558;-66
2022/05/02 08:19:47;;;;;;;8.27;3.13;;;;;;;14.82;54.35;101405.53;5979083;28;20479;-67
2022/05/02 08:30:04;;;;;;;8.05;3.63;;;;;;;14.49;55.51;101396.44;5979624;28;20066;-67
2022/05/02 08:33:03;;;;;;;5.63;3.08;;;;;;;14.46;55.52;101396.72;5979506;28;20483;-67
2022/05/02 08:36:03;;;;;;;5.68;3.10;;;;;;;14.96;53.86;101399.63;5979034;28;20031;-67
2022/05/02 08:39:04;;;;;;;6.90;3.67;;;;;;;14.96;53.18;101396.94;5979495;28;20047;-67
2022/05/02 08:42:41;;;;;;;6.97;3.33;;;;;;;15.07;53.92;101401.19;5978507;28;20062;-67
2022/05/02 08:46:06;;;;;;;7.80;3.95;;;;;;;14.92;54.38;101384.88;5984986;28;20043;-67
2022/05/02 08:49:38;;;;;;;5.95;3.30;;;;;;;15.23;53.25;101398.59;5979367;28;20094;-67
2022/05/02 08:52:47;;;;;;;9.18;3.58;;;;;;;15.16;52.23;101392.22;5983979;28;20078;-67
2022/05/02 08:56:21;;;;;;;5.78;2.92;;;;;;;15.41;52.00;101389.50;5979037;28;20475;-66
2022/05/02 09:00:02;;;;;;;6.38;2.83;;;;;;;15.45;52.48;101388.19;5977650;28;20090;-67
2022/05/02 09:03:24;;;;;;;7.05;3.00;;;;;;;15.03;52.72;101389.16;5977064;28;20043;-68
2022/05/02 09:06:40;;;;;;;8.15;3.50;;;;;;;15.28;52.66;101389.09;5971449;29;20149;-68
2022/05/02 09:10:05;;;;;;;5.75;2.95;;;;;;;15.83;51.62;101377.97;5983235;28;20066;-68
2022/05/02 09:13:31;;;;;;;9.40;3.13;;;;;;;15.95;49.92;101382.03;5983479;28;20035;-67
2022/05/02 09:16:48;;;;;;;6.78;3.45;;;;;;;16.47;47.96;101382.56;5975154;28;20031;-68
2022/05/02 09:20:20;;;;;;;10.75;3.60;;;;;;;15.90;49.38;101376.31;5981705;29;20047;-67
2022/05/02 09:23:47;;;;;;;7.28;2.97;;;;;;;16.15;48.78;101370.00;5982905;29;20411;-66
2022/05/02 09:27:25;;;;;;;7.05;4.05;;;;;;;16.55;45.86;101372.69;5983318;28;20039;-67
2022/05/02 09:30:58;;;;;;;10.48;3.67;;;;;;;16.84;46.72;101368.66;5981051;28;20055;-68
2022/05/02 09:34:16;;;;;;;9.50;3.50;;;;;;;16.63;46.48;101366.53;5982825;28;20043;-68
2022/05/02 09:37:15;;;;;;;9.38;3.70;;;;;;;16.57;46.73;101357.31;5983176;28;20039;-67
2022/05/02 09:40:17;;;;;;;12.00;3.53;;;;;;;16.76;45.60;101369.50;5996922;28;20090;-66
2022/05/02 09:49:33;;;;;;;6.90;3.33;;;;;;;17.11;44.06;101362.91;5982711;28;20035;-67
2022/05/02 09:50:51;;;;;;;9.60;3.53;;;;;;;16.60;45.44;101356.16;5993119;28;20034;-67
2022/05/02 09:53:49;;;;;;;8.57;3.50;;;;;;;16.65;46.14;101357.31;5981400;28;20538;-68
2022/05/02 09:56:46;;;;;;;9.20;4.05;;;;;;;16.37;45.56;101345.25;5982422;28;20031;-67
2022/05/02 09:59:48;;;;;;;10.20;3.55;;;;;;;16.33;45.75;101348.44;5982190;28;20043;-67
2022/05/02 10:02:48;;;;;;;7.45;4.10;;;;;;;16.80;44.56;101352.06;5981787;28;20475;-67
2022/05/02 10:05:46;;;;;;;7.32;3.80;;;;;;;17.48;44.05;101349.66;5983867;28;20046;-67
2022/05/02 10:08:50;;;;;;;7.38;3.75;;;;;;;18.24;42.43;101346.19;5981053;29;20106;-67
2022/05/02 10:12:12;;;;;;;7.00;3.72;;;;;;;18.53;40.50;101349.00;5981204;28;20044;-67
2022/05/02 10:15:22;;;;;;;6.97;3.50;;;;;;;19.28;40.55;101330.00;5981720;28;20078;-67
2022/05/02 10:18:17;;;;;;;7.13;3.42;;;;;;;18.38;38.68;101334.66;5981771;28;20067;-67
2022/05/02 10:21:39;;;;;;;5.55;3.45;;;;;;;18.09;39.65;101337.25;5982181;28;20126;-68
2022/05/02 10:25:03;;;;;;;7.53;3.67;;;;;;;17.77;41.97;101331.06;5980040;29;20039;-67
2022/05/02 10:28:08;;;;;;;8.77;3.60;;;;;;;17.48;40.73;101320.16;5981572;28;20039;-67
2022/05/02 10:31:19;;;;;;;6.93;3.70;;;;;;;18.03;39.79;101314.63;5979445;28;20035;-68
2022/05/02 10:34:17;;;;;;;9.73;3.75;;;;;;;18.11;39.64;101308.38;5981456;28;20039;-68
2022/05/02 10:37:13;;;;;;;6.03;3.03;;;;;;;18.48;40.72;101308.38;5981202;28;20091;-68
2022/05/02 10:40:12;;;;;;;6.45;3.58;;;;;;;18.22;39.75;101308.78;5979771;29;20067;-68
2022/05/02 10:43:09;;;;;;;5.85;3.35;;;;;;;18.08;38.52;101306.03;5980809;28;20035;-68
2022/05/02 10:46:06;;;;;;;6.20;3.42;;;;;;;18.01;40.01;101302.41;5981206;28;20102;-67
2022/05/02 10:49:18;;;;;;;7.72;3.85;;;;;;;17.67;38.47;101300.97;5981051;28;20043;-67
2022/05/02 10:52:42;;;;;;;5.07;3.05;;;;;;;17.69;38.98;101301.63;5979514;28;20035;-67
2022/05/02 10:56:01;;;;;;;7.55;3.30;;;;;;;17.61;40.69;101299.00;5981993;28;20032;-67
2022/05/02 10:59:00;;;;;;;8.77;4.00;;;;;;;17.98;39.02;101300.09;5980824;28;20034;-67
2022/05/02 11:02:43;;;;;;;8.43;3.97;;;;;;;18.24;38.51;101297.84;5979144;28;20046;-68
2022/05/02 11:05:59;;;;;;;6.80;3.47;;;;;;;18.57;38.54;101285.81;5993460;28;20067;-67
2022/05/02 11:09:00;;;;;;;7.60;3.58;;;;;;;18.61;38.86;101287.13;5978586;29;20069;-67
2022/05/02 11:11:55;;;;;;;6.70;3.03;;;;;;;19.10;34.84;101273.13;5986428;28;20082;-67
2022/05/02 11:15:04;;;;;;;6.53;3.47;;;;;;;19.22;35.93;101269.75;5980514;28;20035;-68
2022/05/02 11:22:04;;;;;;;7.85;4.10;;;;;;;19.18;37.12;101273.00;5978863;29;20071;-66
2022/05/02 11:25:07;;;;;;;7.97;3.67;;;;;;;18.77;38.65;101265.44;5979840;29;20403;-68
2022/05/02 11:28:30;;;;;;;6.05;3.70;;;;;;;19.31;37.62;101257.03;5988635;28;20447;-69
2022/05/02 11:31:30;;;;;;;9.00;4.03;;;;;;;19.25;37.75;101247.00;5976428;28;20063;-67
2022/05/02 11:34:41;;;;;;;6.82;3.63;;;;;;;19.66;38.34;101255.34;5979181;28;20118;-68
2022/05/02 11:37:49;;;;;;;5.38;3.95;;;;;;;19.74;38.00;101253.38;5980095;28;20050;-67
2022/05/02 11:40:51;;;;;;;8.45;3.78;;;;;;;20.15;37.27;101240.91;5980245;28;20541;-68
2022/05/02 11:43:48;;;;;;;8.27;4.32;;;;;;;19.37;38.58;101242.81;5979622;28;20038;-67
2022/05/02 11:47:01;;;;;;;9.48;4.07;;;;;;;19.50;39.22;101246.53;5979969;28;20043;-69
2022/05/02 11:50:04;;;;;;;6.22;3.55;;;;;;;19.10;39.50;101240.84;5978751;28;20039;-67
2022/05/02 11:53:02;;;;;;;12.50;4.78;;;;;;;19.50;41.09;101229.53;5979999;28;20031;-68
2022/05/02 11:56:02;;;;;;;11.48;4.50;;;;;;;19.55;38.76;101229.78;5978465;29;20039;-68
2022/05/02 11:59:04;;;;;;;9.00;4.05;;;;;;;19.68;40.10;101215.63;5979827;28;20065;-69
2022/05/02 12:02:03;;;;;;;8.82;3.65;;;;;;;20.23;38.44;101225.63;5980946;28;20039;-68
2022/05/02 12:05:02;;;;;;;6.47;4.03;;;;;;;19.58;38.50;101227.56;5979829;28;20039;-68
2022/05/02 12:07:58;;;;;;;7.45;3.85;;;;;;;19.62;38.70;101219.94;5979330;28;20039;-68
2022/05/02 12:11:12;;;;;;;8.73;4.43;;;;;;;19.57;39.55;101211.59;5978758;28;20031;-68
2022/05/02 12:14:18;;;;;;;7.50;3.58;;;;;;;19.51;39.21;101205.13;5979702;28;20033;-68
2022/05/02 12:17:13;;;;;;;7.57;4.20;;;;;;;19.03;39.77;101200.44;5980087;28;20050;-67
2022/05/02 12:20:29;;;;;;;6.53;3.80;;;;;;;19.42;40.31;101197.38;5978864;28;20028;-67
2022/05/02 12:23:31;;;;;;;6.18;3.67;;;;;;;20.13;39.62;101193.66;5976412;28;20035;-68
2022/05/02 12:26:28;;;;;;;7.55;4.28;;;;;;;20.40;38.24;101192.81;5978331;29;20459;-67
2022/05/02 12:29:24;;;;;;;7.57;4.85;;;;;;;19.99;38.39;101194.56;5979034;28;20067;-68
2022/05/02 12:32:24;;;;;;;7.70;3.67;;;;;;;20.17;38.99;101186.81;5981786;28;20027;-68
2022/05/02 12:35:21;;;;;;;5.72;4.18;;;;;;;19.87;38.88;101188.03;5979275;28;20042;-68
2022/05/02 12:38:23;;;;;;;7.70;3.90;;;;;;;20.44;38.54;101185.16;5979519;28;20487;-68
2022/05/02 12:41:23;;;;;;;7.88;4.07;;;;;;;19.74;39.81;101177.19;5982767;28;20039;-69
2022/05/02 12:44:18;;;;;;;6.97;4.10;;;;;;;20.43;38.27;101172.75;5983645;28;20059;-68
2022/05/02 12:47:20;;;;;;;7.43;4.43;;;;;;;20.47;38.05;101174.00;5983471;28;20046;-68
2022/05/02 12:50:20;;;;;;;7.90;3.80;;;;;;;20.86;38.01;101162.56;5983987;28;20099;-68
2022/05/02 13:00:32;;;;;;;6.45;4.53;;;;;;;20.14;38.65;101166.50;5976393;28;20441;-67
2022/05/02 13:03:28;;;;;;;8.55;4.70;;;;;;;20.36;38.08;101161.06;5983690;28;20035;-68
2022/05/02 13:06:24;;;;;;;6.63;3.85;;;;;;;20.65;37.38;101155.44;5984670;28;20098;-68
2022/05/02 13:09:20;;;;;;;7.80;4.07;;;;;;;20.23;38.47;101160.97;5983314;28;20034;-67
2022/05/02 13:12:17;;;;;;;7.63;4.57;;;;;;;20.08;37.77;101151.13;5982689;28;20031;-68
2022/05/02 13:15:12;;;;;;;7.55;4.47;;;;;;;19.63;39.56;101148.09;5981863;28;20035;-67
2022/05/02 13:18:13;;;;;;;7.15;4.40;;;;;;;19.89;39.65;101154.53;5982103;29;20063;-68
2022/05/02 13:21:12;;;;;;;13.95;5.38;;;;;;;19.20;40.33;101153.47;5981842;28;20031;-68
2022/05/02 13:24:11;;;;;;;8.20;4.80;;;;;;;19.00;41.15;101149.72;5983775;28;20039;-67
2022/05/02 13:27:18;;;;;;;6.90;4.00;;;;;;;18.95;40.68;101142.25;5983348;28;20083;-68
2022/05/02 13:30:13;;;;;;;9.45;5.38;;;;;;;18.86;41.19;101140.69;5975049;28;20103;-69
2022/05/02 13:33:11;;;;;;;12.30;5.03;;;;;;;18.67;41.35;101141.28;5979995;28;20043;-68
2022/05/02 13:36:07;;;;;;;9.20;4.50;;;;;;;19.46;40.42;101132.22;5981502;28;20279;-68
2022/05/02 13:39:07;;;;;;;8.43;4.40;;;;;;;19.57;39.87;101128.19;5985832;28;20446;-67
2022/05/02 13:42:04;;;;;;;7.45;3.90;;;;;;;19.22;41.34;101123.69;5981883;28;20494;-67
2022/05/02 13:45:03;;;;;;;10.65;4.70;;;;;;;19.01;41.05;101129.91;5981702;28;20045;-68
2022/05/02 13:48:04;;;;;;;8.35;4.78;;;;;;;19.18;40.62;101127.78;5982102;28;20056;-69
2022/05/02 13:51:27;;;;;;;9.65;4.45;;;;;;;19.16;41.21;101114.53;5980879;28;20089;-67
2022/05/02 13:54:26;;;;;;;6.78;3.95;;;;;;;19.22;40.93;101112.94;5982334;28;20398;-67
2022/05/02 13:57:47;;;;;;;7.55;4.20;;;;;;;19.62;40.87;101116.84;5978392;28;20042;-69
2022/05/02 14:03:55;;;;;;;7.10;3.60;;;;;;;19.57;40.80;101101.28;5979086;28;20039;-67
2022/05/02 14:09:51;;;;;;;7.55;3.97;;;;;;;19.83;39.51;101106.88;5977157;28;20483;-68
2022/05/02 14:12:48;;;;;;;6.72;4.28;;;;;;;19.72;40.59;101104.72;5979082;28;20073;-68
2022/05/02 14:15:44;;;;;;;8.13;4.22;;;;;;;19.86;39.80;101095.72;5978326;28;20074;-68
2022/05/02 14:18:53;;;;;;;7.15;4.18;;;;;;;20.27;39.13;101093.09;5977958;28;20035;-68
2022/05/02 14:21:51;;;;;;;9.07;4.63;;;;;;;20.03;39.99;101091.66;5977720;28;20046;-67
2022/05/02 14:24:47;;;;;;;6.28;4.53;;;;;;;19.71;41.36;101099.50;5978713;28;20039;-67
2022/05/02 14:27:42;;;;;;;7.47;4.10;;;;;;;19.74;40.73;101097.28;5978965;28;20506;-68
2022/05/02 14:30:41;;;;;;;8.70;4.60;;;;;;;19.64;40.29;101098.63;5981328;28;20497;-67
2022/05/02 14:33:38;;;;;;;9.52;4.50;;;;;;;19.66;40.81;101083.97;5978451;28;20039;-67
2022/05/02 14:36:36;;;;;;;7.45;4.70;;;;;;;19.65;40.29;101086.84;5978338;28;20390;-66
2022/05/02 14:39:36;;;;;;;9.20;4.00;;;;;;;19.90;39.85;101082.66;5978570;28;20031;-68
2022/05/02 14:42:31;;;;;;;8.40;4.28;;;;;;;20.50;38.89;101081.97;5974037;28;20410;-68
2022/05/02 14:45:27;;;;;;;11.60;4.68;;;;;;;21.55;37.49;101076.78;5972890;28;20050;-68
2022/05/02 14:48:23;;;;;;;9.25;4.20;;;;;;;22.29;36.94;101074.56;5970248;29;20126;-67